Terminal Aerodrome Forecast
Issued by NWS Wichita, KS

Home | Current Version | Previous Version | Text Only | Print | Product List | Glossary Off
Versions: 1 2 3 4 5 6 7 8 9 10 11 12 13 14 15 16

732
FTUS43 KICT 142348
TAFICT
TAF
KICT 142348Z 1500/1524 25009KT P6SM BKN250
     FM150600 26006KT P6SM OVC080
     FM150700 29007KT P6SM VCSH OVC060
     FM150800 36011KT 5SM -SN SCT015 OVC020
     FM150900 36013KT 4SM -SN BR OVC015
      TEMPO 1509/1512 2SM -SN BR OVC009
     FM151200 01014KT 5SM -SN OVC025
     FM151300 01016G24KT P6SM OVC040=

USA.gov is the U.S. government's official web portal to all federal, state and local government web resources and services.